Terminal Aerodrome Forecast
Issued by NWS

Home | Current Version | Previous Version | Text Only | Print | Product List | Glossary On
Versions: 1 2 3 4 5 6 7 8 9 10 11 12 13 14 15 16 17 18 19 20 21 22 23 24 25 26
299
FTUS46 KMTR 091135
TAFSFO
TAF
KSFO 091135Z 0912/1018 14004KT 5SM BR VCSH FEW007 BKN018 OVC035
     FM092000 19006KT P6SM VCSH FEW009 BKN020 OVC040
     FM100600 18011KT P6SM -SHRA SCT008 OVC015
     FM100900 19016G22KT 6SM -RA BR SCT007 OVC012
     FM101600 21012KT 6SM -RA BR SCT008 BKN016 OVC024=

USA.gov is the U.S. government's official web portal to all federal, state and local government web resources and services.